sensor_id;sensor_type;location;lat;lon;timestamp;temperature;humidity
12060;DHT22;6091;51.432;6.880;2023-05-29T00:00:47;26.60;33.50
12060;DHT22;6091;51.432;6.880;2023-05-29T00:03:14;26.60;33.90
12060;DHT22;6091;51.432;6.880;2023-05-29T00:05:41;26.50;33.50
12060;DHT22;6091;51.432;6.880;2023-05-29T00:08:08;26.50;33.50
12060;DHT22;6091;51.432;6.880;2023-05-29T00:10:35;26.50;33.50
12060;DHT22;6091;51.432;6.880;2023-05-29T00:13:03;26.50;33.60
12060;DHT22;6091;51.432;6.880;2023-05-29T00:15:33;26.50;33.70
12060;DHT22;6091;51.432;6.880;2023-05-29T00:18:00;26.50;33.60
12060;DHT22;6091;51.432;6.880;2023-05-29T00:20:28;26.50;33.60
12060;DHT22;6091;51.432;6.880;2023-05-29T00:22:55;26.50;33.70
12060;DHT22;6091;51.432;6.880;2023-05-29T00:25:22;26.50;33.70
12060;DHT22;6091;51.432;6.880;2023-05-29T00:27:49;26.50;33.70
12060;DHT22;6091;51.432;6.880;2023-05-29T00:30:16;26.50;33.80
12060;DHT22;6091;51.432;6.880;2023-05-29T00:32:43;26.50;33.80
12060;DHT22;6091;51.432;6.880;2023-05-29T00:35:10;26.40;33.70
12060;DHT22;6091;51.432;6.880;2023-05-29T00:37:37;26.40;33.80
12060;DHT22;6091;51.432;6.880;2023-05-29T00:40:05;26.40;33.80
12060;DHT22;6091;51.432;6.880;2023-05-29T00:42:33;26.40;34.40
12060;DHT22;6091;51.432;6.880;2023-05-29T00:45:00;26.40;33.90
12060;DHT22;6091;51.432;6.880;2023-05-29T00:47:27;26.40;33.90
12060;DHT22;6091;51.432;6.880;2023-05-29T00:49:56;26.40;33.90
12060;DHT22;6091;51.432;6.880;2023-05-29T00:52:25;26.40;34.00
12060;DHT22;6091;51.432;6.880;2023-05-29T00:54:54;26.40;34.00
12060;DHT22;6091;51.432;6.880;2023-05-29T00:57:21;26.40;33.90
12060;DHT22;6091;51.432;6.880;2023-05-29T00:59:52;26.30;33.90
12060;DHT22;6091;51.432;6.880;2023-05-29T01:02:20;26.30;34.00
12060;DHT22;6091;51.432;6.880;2023-05-29T01:04:47;26.30;34.00
12060;DHT22;6091;51.432;6.880;2023-05-29T01:07:15;26.30;34.00
12060;DHT22;6091;51.432;6.880;2023-05-29T01:09:42;26.30;34.00
12060;DHT22;6091;51.432;6.880;2023-05-29T01:24:36;26.30;34.20
12060;DHT22;6091;51.432;6.880;2023-05-29T01:27:11;26.30;34.20
12060;DHT22;6091;51.432;6.880;2023-05-29T01:29:45;26.20;34.10
12060;DHT22;6091;51.432;6.880;2023-05-29T01:32:13;26.20;34.10
12060;DHT22;6091;51.432;6.880;2023-05-29T01:34:40;26.20;34.10
12060;DHT22;6091;51.432;6.880;2023-05-29T01:37:07;26.20;34.20
12060;DHT22;6091;51.432;6.880;2023-05-29T01:39:36;26.20;34.20
12060;DHT22;6091;51.432;6.880;2023-05-29T01:42:03;26.10;34.20
12060;DHT22;6091;51.432;6.880;2023-05-29T01:44:32;26.10;34.20
12060;DHT22;6091;51.432;6.880;2023-05-29T01:47:00;26.20;34.30
12060;DHT22;6091;51.432;6.880;2023-05-29T01:49:28;26.20;34.30
12060;DHT22;6091;51.432;6.880;2023-05-29T01:51:58;26.10;34.20
12060;DHT22;6091;51.432;6.880;2023-05-29T01:54:25;26.10;34.30
12060;DHT22;6091;51.432;6.880;2023-05-29T01:56:52;26.10;34.30
12060;DHT22;6091;51.432;6.880;2023-05-29T01:59:19;26.10;34.30
12060;DHT22;6091;51.432;6.880;2023-05-29T02:01:48;26.10;34.30
12060;DHT22;6091;51.432;6.880;2023-05-29T02:04:15;26.10;34.30
12060;DHT22;6091;51.432;6.880;2023-05-29T02:06:42;26.10;34.40
12060;DHT22;6091;51.432;6.880;2023-05-29T02:09:09;26.10;34.40
12060;DHT22;6091;51.432;6.880;2023-05-29T02:11:37;26.00;34.30
12060;DHT22;6091;51.432;6.880;2023-05-29T02:14:03;26.10;34.40
12060;DHT22;6091;51.432;6.880;2023-05-29T02:16:31;26.10;34.50
12060;DHT22;6091;51.432;6.880;2023-05-29T02:19:01;26.00;34.40
12060;DHT22;6091;51.432;6.880;2023-05-29T02:21:31;26.00;34.40
12060;DHT22;6091;51.432;6.880;2023-05-29T02:24:01;26.00;34.50
12060;DHT22;6091;51.432;6.880;2023-05-29T02:26:28;26.00;35.10
12060;DHT22;6091;51.432;6.880;2023-05-29T02:28:55;26.00;34.50
12060;DHT22;6091;51.432;6.880;2023-05-29T02:31:22;26.00;34.50
12060;DHT22;6091;51.432;6.880;2023-05-29T02:33:49;26.00;34.60
12060;DHT22;6091;51.432;6.880;2023-05-29T02:36:16;26.00;34.50
12060;DHT22;6091;51.432;6.880;2023-05-29T02:38:43;25.90;34.50
12060;DHT22;6091;51.432;6.880;2023-05-29T02:41:10;26.00;34.50
12060;DHT22;6091;51.432;6.880;2023-05-29T02:43:37;25.90;34.50
12060;DHT22;6091;51.432;6.880;2023-05-29T02:46:06;26.00;34.60
12060;DHT22;6091;51.432;6.880;2023-05-29T02:48:32;25.90;34.60
12060;DHT22;6091;51.432;6.880;2023-05-29T02:50:59;25.90;34.60
12060;DHT22;6091;51.432;6.880;2023-05-29T02:53:26;25.90;34.60
12060;DHT22;6091;51.432;6.880;2023-05-29T02:55:53;25.90;34.70
12060;DHT22;6091;51.432;6.880;2023-05-29T02:58:21;25.90;34.70
12060;DHT22;6091;51.432;6.880;2023-05-29T03:00:48;25.90;34.70
12060;DHT22;6091;51.432;6.880;2023-05-29T03:03:15;25.90;34.70
12060;DHT22;6091;51.432;6.880;2023-05-29T03:05:42;25.90;34.70
12060;DHT22;6091;51.432;6.880;2023-05-29T03:08:10;25.90;34.80
12060;DHT22;6091;51.432;6.880;2023-05-29T03:10:38;25.80;34.70
12060;DHT22;6091;51.432;6.880;2023-05-29T03:13:06;25.80;34.70
12060;DHT22;6091;51.432;6.880;2023-05-29T03:15:33;25.80;34.70
12060;DHT22;6091;51.432;6.880;2023-05-29T03:18:00;25.80;35.20
12060;DHT22;6091;51.432;6.880;2023-05-29T03:20:27;25.80;34.80
12060;DHT22;6091;51.432;6.880;2023-05-29T03:22:55;25.80;35.40
12060;DHT22;6091;51.432;6.880;2023-05-29T03:25:23;25.80;34.80
12060;DHT22;6091;51.432;6.880;2023-05-29T03:27:50;25.80;34.80
12060;DHT22;6091;51.432;6.880;2023-05-29T03:30:17;25.80;34.80
12060;DHT22;6091;51.432;6.880;2023-05-29T03:32:45;25.80;34.80
12060;DHT22;6091;51.432;6.880;2023-05-29T03:35:12;25.70;34.80
12060;DHT22;6091;51.432;6.880;2023-05-29T03:37:40;25.80;34.90
12060;DHT22;6091;51.432;6.880;2023-05-29T03:40:07;25.80;34.90
12060;DHT22;6091;51.432;6.880;2023-05-29T03:42:35;25.70;34.90
12060;DHT22;6091;51.432;6.880;2023-05-29T03:45:06;25.70;34.90
12060;DHT22;6091;51.432;6.880;2023-05-29T03:47:33;25.70;35.00
12060;DHT22;6091;51.432;6.880;2023-05-29T03:50:01;25.70;34.90
12060;DHT22;6091;51.432;6.880;2023-05-29T03:52:28;25.70;35.00
12060;DHT22;6091;51.432;6.880;2023-05-29T03:54:55;25.70;35.00
12060;DHT22;6091;51.432;6.880;2023-05-29T03:57:23;25.60;34.90
12060;DHT22;6091;51.432;6.880;2023-05-29T03:59:49;25.70;35.00
12060;DHT22;6091;51.432;6.880;2023-05-29T04:02:17;25.70;35.00
12060;DHT22;6091;51.432;6.880;2023-05-29T04:04:46;25.60;35.00
12060;DHT22;6091;51.432;6.880;2023-05-29T04:07:15;25.70;35.10
12060;DHT22;6091;51.432;6.880;2023-05-29T04:09:45;25.60;35.00
12060;DHT22;6091;51.432;6.880;2023-05-29T04:12:12;25.60;35.00
12060;DHT22;6091;51.432;6.880;2023-05-29T04:14:43;25.60;35.10
12060;DHT22;6091;51.432;6.880;2023-05-29T04:17:10;25.60;35.00
12060;DHT22;6091;51.432;6.880;2023-05-29T04:19:38;25.60;35.10
12060;DHT22;6091;51.432;6.880;2023-05-29T04:22:07;25.60;35.10
12060;DHT22;6091;51.432;6.880;2023-05-29T04:24:34;25.60;35.10
12060;DHT22;6091;51.432;6.880;2023-05-29T04:27:02;25.60;35.10
12060;DHT22;6091;51.432;6.880;2023-05-29T04:29:29;25.60;35.10
12060;DHT22;6091;51.432;6.880;2023-05-29T04:31:58;25.60;35.20
12060;DHT22;6091;51.432;6.880;2023-05-29T04:34:25;25.60;35.20
12060;DHT22;6091;51.432;6.880;2023-05-29T04:36:52;25.60;35.20
12060;DHT22;6091;51.432;6.880;2023-05-29T04:39:19;25.60;35.20
12060;DHT22;6091;51.432;6.880;2023-05-29T04:41:49;25.60;35.20
12060;DHT22;6091;51.432;6.880;2023-05-29T04:44:18;25.60;35.20
12060;DHT22;6091;51.432;6.880;2023-05-29T04:46:45;25.60;35.20
12060;DHT22;6091;51.432;6.880;2023-05-29T04:49:13;25.60;35.20
12060;DHT22;6091;51.432;6.880;2023-05-29T04:51:40;25.60;35.50
12060;DHT22;6091;51.432;6.880;2023-05-29T04:54:08;25.60;35.20
12060;DHT22;6091;51.432;6.880;2023-05-29T04:56:36;25.60;35.30
12060;DHT22;6091;51.432;6.880;2023-05-29T04:59:04;25.60;35.20
12060;DHT22;6091;51.432;6.880;2023-05-29T05:01:31;25.60;35.30
12060;DHT22;6091;51.432;6.880;2023-05-29T05:04:00;25.60;35.30
12060;DHT22;6091;51.432;6.880;2023-05-29T05:06:28;25.60;35.30
12060;DHT22;6091;51.432;6.880;2023-05-29T05:08:56;25.60;35.30
12060;DHT22;6091;51.432;6.880;2023-05-29T05:11:23;25.60;35.30
12060;DHT22;6091;51.432;6.880;2023-05-29T05:13:51;25.60;35.30
12060;DHT22;6091;51.432;6.880;2023-05-29T05:16:18;25.60;35.30
12060;DHT22;6091;51.432;6.880;2023-05-29T05:18:45;25.60;35.30
12060;DHT22;6091;51.432;6.880;2023-05-29T05:21:12;25.60;35.30
12060;DHT22;6091;51.432;6.880;2023-05-29T05:23:40;25.60;35.40
12060;DHT22;6091;51.432;6.880;2023-05-29T05:26:24;25.60;35.40
12060;DHT22;6091;51.432;6.880;2023-05-29T05:28:53;25.60;35.30
12060;DHT22;6091;51.432;6.880;2023-05-29T05:31:23;25.60;35.30
12060;DHT22;6091;51.432;6.880;2023-05-29T05:33:50;25.60;35.40
12060;DHT22;6091;51.432;6.880;2023-05-29T05:36:18;25.60;35.40
12060;DHT22;6091;51.432;6.880;2023-05-29T05:38:45;25.60;35.40
12060;DHT22;6091;51.432;6.880;2023-05-29T05:41:12;25.60;35.40
12060;DHT22;6091;51.432;6.880;2023-05-29T05:43:39;25.60;35.40
12060;DHT22;6091;51.432;6.880;2023-05-29T05:46:06;25.60;35.40
12060;DHT22;6091;51.432;6.880;2023-05-29T05:48:34;25.60;35.40
12060;DHT22;6091;51.432;6.880;2023-05-29T05:51:01;25.60;35.40
12060;DHT22;6091;51.432;6.880;2023-05-29T05:53:28;25.60;35.40
12060;DHT22;6091;51.432;6.880;2023-05-29T05:55:55;25.60;35.40
12060;DHT22;6091;51.432;6.880;2023-05-29T05:58:22;25.60;35.40
12060;DHT22;6091;51.432;6.880;2023-05-29T06:00:50;25.60;35.40
12060;DHT22;6091;51.432;6.880;2023-05-29T06:03:19;25.60;35.40
12060;DHT22;6091;51.432;6.880;2023-05-29T06:05:47;25.60;35.40
12060;DHT22;6091;51.432;6.880;2023-05-29T06:08:15;25.60;35.40
12060;DHT22;6091;51.432;6.880;2023-05-29T06:10:41;25.60;35.40
12060;DHT22;6091;51.432;6.880;2023-05-29T06:13:09;25.70;35.40
12060;DHT22;6091;51.432;6.880;2023-05-29T06:15:36;25.70;35.50
12060;DHT22;6091;51.432;6.880;2023-05-29T06:18:04;25.70;35.40
12060;DHT22;6091;51.432;6.880;2023-05-29T06:20:31;25.60;35.40
12060;DHT22;6091;51.432;6.880;2023-05-29T06:22:58;25.60;35.40
12060;DHT22;6091;51.432;6.880;2023-05-29T06:25:25;25.70;35.40
12060;DHT22;6091;51.432;6.880;2023-05-29T06:28:00;25.60;35.40
12060;DHT22;6091;51.432;6.880;2023-05-29T06:30:27;25.60;35.30
12060;DHT22;6091;51.432;6.880;2023-05-29T06:32:54;25.70;35.40
12060;DHT22;6091;51.432;6.880;2023-05-29T06:35:22;25.70;35.40
12060;DHT22;6091;51.432;6.880;2023-05-29T06:37:49;25.70;35.40
12060;DHT22;6091;51.432;6.880;2023-05-29T06:40:15;25.70;35.40
12060;DHT22;6091;51.432;6.880;2023-05-29T06:42:42;25.70;35.40
12060;DHT22;6091;51.432;6.880;2023-05-29T06:45:11;25.70;35.40
12060;DHT22;6091;51.432;6.880;2023-05-29T06:47:44;25.70;35.40
12060;DHT22;6091;51.432;6.880;2023-05-29T06:50:11;25.70;35.40
12060;DHT22;6091;51.432;6.880;2023-05-29T06:52:38;25.80;35.50
12060;DHT22;6091;51.432;6.880;2023-05-29T06:55:06;25.80;35.40
12060;DHT22;6091;51.432;6.880;2023-05-29T06:57:33;25.80;35.40
12060;DHT22;6091;51.432;6.880;2023-05-29T07:00:00;25.80;35.40
12060;DHT22;6091;51.432;6.880;2023-05-29T07:02:27;25.80;35.40
12060;DHT22;6091;51.432;6.880;2023-05-29T07:04:54;25.80;35.40
12060;DHT22;6091;51.432;6.880;2023-05-29T07:07:21;25.80;35.30
12060;DHT22;6091;51.432;6.880;2023-05-29T07:09:48;25.80;35.30
12060;DHT22;6091;51.432;6.880;2023-05-29T07:12:15;25.80;35.30
12060;DHT22;6091;51.432;6.880;2023-05-29T07:14:42;25.80;35.40
12060;DHT22;6091;51.432;6.880;2023-05-29T07:17:09;25.90;35.40
12060;DHT22;6091;51.432;6.880;2023-05-29T07:19:36;25.80;35.30
12060;DHT22;6091;51.432;6.880;2023-05-29T07:22:03;25.90;35.40
12060;DHT22;6091;51.432;6.880;2023-05-29T07:24:30;25.90;35.40
12060;DHT22;6091;51.432;6.880;2023-05-29T07:26:57;25.90;35.30
12060;DHT22;6091;51.432;6.880;2023-05-29T07:29:24;26.00;35.40
12060;DHT22;6091;51.432;6.880;2023-05-29T07:31:51;25.90;35.30
12060;DHT22;6091;51.432;6.880;2023-05-29T07:34:18;25.90;35.30
12060;DHT22;6091;51.432;6.880;2023-05-29T07:37:04;26.00;35.40
12060;DHT22;6091;51.432;6.880;2023-05-29T07:39:34;26.00;35.30
12060;DHT22;6091;51.432;6.880;2023-05-29T07:42:02;26.00;35.30
12060;DHT22;6091;51.432;6.880;2023-05-29T07:44:31;26.00;35.90
12060;DHT22;6091;51.432;6.880;2023-05-29T07:46:58;26.00;35.30
12060;DHT22;6091;51.432;6.880;2023-05-29T07:49:25;26.10;35.30
12060;DHT22;6091;51.432;6.880;2023-05-29T07:51:52;26.10;35.30
12060;DHT22;6091;51.432;6.880;2023-05-29T07:54:19;26.10;35.30
12060;DHT22;6091;51.432;6.880;2023-05-29T07:56:47;26.10;35.30
12060;DHT22;6091;51.432;6.880;2023-05-29T07:59:14;26.10;35.20
12060;DHT22;6091;51.432;6.880;2023-05-29T08:01:41;26.10;35.20
12060;DHT22;6091;51.432;6.880;2023-05-29T08:04:09;26.20;35.20
12060;DHT22;6091;51.432;6.880;2023-05-29T08:06:36;26.20;35.20
12060;DHT22;6091;51.432;6.880;2023-05-29T08:09:03;26.20;35.20
12060;DHT22;6091;51.432;6.880;2023-05-29T08:11:31;26.20;35.20
12060;DHT22;6091;51.432;6.880;2023-05-29T08:13:58;26.20;35.80
12060;DHT22;6091;51.432;6.880;2023-05-29T08:16:26;26.20;35.10
12060;DHT22;6091;51.432;6.880;2023-05-29T08:18:54;26.30;35.10
12060;DHT22;6091;51.432;6.880;2023-05-29T08:21:21;26.30;35.10
12060;DHT22;6091;51.432;6.880;2023-05-29T08:23:48;26.30;35.10
12060;DHT22;6091;51.432;6.880;2023-05-29T08:26:15;26.30;35.10
12060;DHT22;6091;51.432;6.880;2023-05-29T08:28:42;26.40;35.10
12060;DHT22;6091;51.432;6.880;2023-05-29T08:31:09;26.40;35.10
12060;DHT22;6091;51.432;6.880;2023-05-29T08:33:36;26.40;35.10
12060;DHT22;6091;51.432;6.880;2023-05-29T08:36:03;26.40;35.00
12060;DHT22;6091;51.432;6.880;2023-05-29T08:38:30;26.40;35.00
12060;DHT22;6091;51.432;6.880;2023-05-29T08:40:57;26.40;34.90
12060;DHT22;6091;51.432;6.880;2023-05-29T08:43:30;26.50;35.00
12060;DHT22;6091;51.432;6.880;2023-05-29T08:46:02;26.50;34.90
12060;DHT22;6091;51.432;6.880;2023-05-29T08:48:31;26.50;34.80
12060;DHT22;6091;51.432;6.880;2023-05-29T08:50:58;26.50;34.80
12060;DHT22;6091;51.432;6.880;2023-05-29T08:53:29;26.60;34.80
12060;DHT22;6091;51.432;6.880;2023-05-29T08:55:58;26.60;34.70
12060;DHT22;6091;51.432;6.880;2023-05-29T08:58:26;26.60;34.70
12060;DHT22;6091;51.432;6.880;2023-05-29T09:00:53;26.60;34.70
12060;DHT22;6091;51.432;6.880;2023-05-29T09:03:22;26.60;34.60
12060;DHT22;6091;51.432;6.880;2023-05-29T09:05:49;26.60;34.50
12060;DHT22;6091;51.432;6.880;2023-05-29T09:08:16;26.70;34.60
12060;DHT22;6091;51.432;6.880;2023-05-29T09:10:45;26.70;34.60
12060;DHT22;6091;51.432;6.880;2023-05-29T09:13:12;26.70;34.50
12060;DHT22;6091;51.432;6.880;2023-05-29T09:15:41;26.70;34.50
12060;DHT22;6091;51.432;6.880;2023-05-29T09:18:10;26.70;34.40
12060;DHT22;6091;51.432;6.880;2023-05-29T09:20:38;26.80;34.50
12060;DHT22;6091;51.432;6.880;2023-05-29T09:23:08;26.80;34.50
12060;DHT22;6091;51.432;6.880;2023-05-29T09:25:40;26.80;34.40
12060;DHT22;6091;51.432;6.880;2023-05-29T09:28:09;26.80;34.30
12060;DHT22;6091;51.432;6.880;2023-05-29T09:30:43;26.90;34.40
12060;DHT22;6091;51.432;6.880;2023-05-29T09:33:12;26.90;34.30
12060;DHT22;6091;51.432;6.880;2023-05-29T09:35:41;26.90;34.30
12060;DHT22;6091;51.432;6.880;2023-05-29T09:38:11;26.90;34.30
12060;DHT22;6091;51.432;6.880;2023-05-29T09:41:03;26.90;34.20
12060;DHT22;6091;51.432;6.880;2023-05-29T09:43:31;27.00;34.20
12060;DHT22;6091;51.432;6.880;2023-05-29T09:46:01;26.90;34.20
12060;DHT22;6091;51.432;6.880;2023-05-29T09:48:29;27.00;34.20
12060;DHT22;6091;51.432;6.880;2023-05-29T09:50:56;27.00;34.20
12060;DHT22;6091;51.432;6.880;2023-05-29T09:53:25;27.10;34.20
12060;DHT22;6091;51.432;6.880;2023-05-29T09:55:56;27.10;34.20
12060;DHT22;6091;51.432;6.880;2023-05-29T09:58:26;27.10;34.10
12060;DHT22;6091;51.432;6.880;2023-05-29T10:00:54;27.20;34.10
12060;DHT22;6091;51.432;6.880;2023-05-29T10:03:22;27.20;34.70
12060;DHT22;6091;51.432;6.880;2023-05-29T10:05:52;27.20;34.10
12060;DHT22;6091;51.432;6.880;2023-05-29T10:08:24;27.20;34.00
12060;DHT22;6091;51.432;6.880;2023-05-29T10:11:02;27.20;34.00
12060;DHT22;6091;51.432;6.880;2023-05-29T10:13:38;27.20;33.80
12060;DHT22;6091;51.432;6.880;2023-05-29T10:16:11;27.30;33.90
12060;DHT22;6091;51.432;6.880;2023-05-29T10:18:44;27.30;33.80
12060;DHT22;6091;51.432;6.880;2023-05-29T10:21:16;27.30;33.80
12060;DHT22;6091;51.432;6.880;2023-05-29T10:23:48;27.40;33.90
12060;DHT22;6091;51.432;6.880;2023-05-29T10:26:22;27.40;33.80
12060;DHT22;6091;51.432;6.880;2023-05-29T10:37:32;27.60;33.70
12060;DHT22;6091;51.432;6.880;2023-05-29T10:40:11;27.60;33.70
12060;DHT22;6091;51.432;6.880;2023-05-29T10:42:49;27.60;33.70
12060;DHT22;6091;51.432;6.880;2023-05-29T10:50:47;27.70;33.60
12060;DHT22;6091;51.432;6.880;2023-05-29T10:53:16;27.80;33.70
12060;DHT22;6091;51.432;6.880;2023-05-29T10:55:50;27.80;33.70
12060;DHT22;6091;51.432;6.880;2023-05-29T10:58:19;27.80;33.70
12060;DHT22;6091;51.432;6.880;2023-05-29T11:00:53;27.80;33.70
12060;DHT22;6091;51.432;6.880;2023-05-29T11:03:23;27.90;33.70
12060;DHT22;6091;51.432;6.880;2023-05-29T11:06:02;27.90;33.60
12060;DHT22;6091;51.432;6.880;2023-05-29T11:08:53;28.00;33.60
12060;DHT22;6091;51.432;6.880;2023-05-29T11:14:04;28.20;33.40
12060;DHT22;6091;51.432;6.880;2023-05-29T11:19:06;28.30;33.50
12060;DHT22;6091;51.432;6.880;2023-05-29T11:24:22;28.50;33.20
12060;DHT22;6091;51.432;6.880;2023-05-29T11:26:52;28.60;33.20
12060;DHT22;6091;51.432;6.880;2023-05-29T11:29:26;28.60;33.30
12060;DHT22;6091;51.432;6.880;2023-05-29T11:31:58;28.70;33.10
12060;DHT22;6091;51.432;6.880;2023-05-29T11:34:30;28.80;33.10
12060;DHT22;6091;51.432;6.880;2023-05-29T11:37:00;28.80;33.10
12060;DHT22;6091;51.432;6.880;2023-05-29T11:39:29;28.90;33.10
12060;DHT22;6091;51.432;6.880;2023-05-29T11:41:58;29.00;33.00
12060;DHT22;6091;51.432;6.880;2023-05-29T11:44:28;29.10;33.10
12060;DHT22;6091;51.432;6.880;2023-05-29T11:47:05;29.20;33.00
12060;DHT22;6091;51.432;6.880;2023-05-29T11:49:37;29.30;32.70
12060;DHT22;6091;51.432;6.880;2023-05-29T11:52:11;29.40;32.80
12060;DHT22;6091;51.432;6.880;2023-05-29T11:54:44;29.50;32.60
12060;DHT22;6091;51.432;6.880;2023-05-29T11:57:19;29.70;32.90
12060;DHT22;6091;51.432;6.880;2023-05-29T11:59:51;29.80;32.70
12060;DHT22;6091;51.432;6.880;2023-05-29T12:02:25;29.90;32.80
12060;DHT22;6091;51.432;6.880;2023-05-29T12:05:04;30.00;32.70
12060;DHT22;6091;51.432;6.880;2023-05-29T12:07:36;30.20;32.30
12060;DHT22;6091;51.432;6.880;2023-05-29T12:10:13;30.30;32.60
12060;DHT22;6091;51.432;6.880;2023-05-29T12:12:51;30.50;32.10
12060;DHT22;6091;51.432;6.880;2023-05-29T12:15:23;30.60;32.20
12060;DHT22;6091;51.432;6.880;2023-05-29T12:17:52;30.70;32.30
12060;DHT22;6091;51.432;6.880;2023-05-29T12:20:23;30.80;32.20
12060;DHT22;6091;51.432;6.880;2023-05-29T12:22:59;31.00;32.10
12060;DHT22;6091;51.432;6.880;2023-05-29T12:25:28;31.10;31.80
12060;DHT22;6091;51.432;6.880;2023-05-29T12:27:56;31.20;32.10
12060;DHT22;6091;51.432;6.880;2023-05-29T12:30:24;31.40;32.10
12060;DHT22;6091;51.432;6.880;2023-05-29T12:32:55;31.50;32.00
12060;DHT22;6091;51.432;6.880;2023-05-29T12:35:25;31.60;31.80
12060;DHT22;6091;51.432;6.880;2023-05-29T12:37:56;31.80;31.80
12060;DHT22;6091;51.432;6.880;2023-05-29T12:40:27;31.80;31.60
12060;DHT22;6091;51.432;6.880;2023-05-29T12:43:00;32.00;31.60
12060;DHT22;6091;51.432;6.880;2023-05-29T12:45:33;32.10;31.50
12060;DHT22;6091;51.432;6.880;2023-05-29T12:48:07;32.20;31.30
12060;DHT22;6091;51.432;6.880;2023-05-29T12:50:37;32.20;30.90
12060;DHT22;6091;51.432;6.880;2023-05-29T12:53:12;32.30;31.10
12060;DHT22;6091;51.432;6.880;2023-05-29T12:55:43;32.30;30.50
12060;DHT22;6091;51.432;6.880;2023-05-29T12:58:13;32.30;30.80
12060;DHT22;6091;51.432;6.880;2023-05-29T13:00:45;32.30;30.60
12060;DHT22;6091;51.432;6.880;2023-05-29T13:03:12;32.20;30.60
12060;DHT22;6091;51.432;6.880;2023-05-29T13:05:40;32.20;30.50
12060;DHT22;6091;51.432;6.880;2023-05-29T13:08:07;32.20;30.40
12060;DHT22;6091;51.432;6.880;2023-05-29T13:10:36;32.10;30.30
12060;DHT22;6091;51.432;6.880;2023-05-29T13:13:03;32.10;30.60
12060;DHT22;6091;51.432;6.880;2023-05-29T13:15:30;32.10;30.30
12060;DHT22;6091;51.432;6.880;2023-05-29T13:17:59;32.00;30.20
12060;DHT22;6091;51.432;6.880;2023-05-29T13:20:27;31.90;30.10
12060;DHT22;6091;51.432;6.880;2023-05-29T13:22:55;31.90;30.10
12060;DHT22;6091;51.432;6.880;2023-05-29T13:25:22;31.80;30.00
12060;DHT22;6091;51.432;6.880;2023-05-29T13:27:51;31.70;30.00
12060;DHT22;6091;51.432;6.880;2023-05-29T13:30:19;31.60;30.00
12060;DHT22;6091;51.432;6.880;2023-05-29T13:32:46;31.50;29.90
12060;DHT22;6091;51.432;6.880;2023-05-29T13:35:13;31.40;29.80
12060;DHT22;6091;51.432;6.880;2023-05-29T13:37:40;31.30;29.80
12060;DHT22;6091;51.432;6.880;2023-05-29T13:40:10;31.20;29.90
12060;DHT22;6091;51.432;6.880;2023-05-29T13:42:38;31.10;29.90
12060;DHT22;6091;51.432;6.880;2023-05-29T13:45:06;31.00;29.90
12060;DHT22;6091;51.432;6.880;2023-05-29T13:47:35;30.90;29.90
12060;DHT22;6091;51.432;6.880;2023-05-29T13:50:03;30.80;29.90
12060;DHT22;6091;51.432;6.880;2023-05-29T13:52:32;30.70;29.90
12060;DHT22;6091;51.432;6.880;2023-05-29T13:54:59;30.60;29.90
12060;DHT22;6091;51.432;6.880;2023-05-29T13:57:31;30.50;29.90
12060;DHT22;6091;51.432;6.880;2023-05-29T14:00:00;30.40;29.90
12060;DHT22;6091;51.432;6.880;2023-05-29T14:02:27;30.30;30.00
12060;DHT22;6091;51.432;6.880;2023-05-29T14:04:55;30.20;30.00
12060;DHT22;6091;51.432;6.880;2023-05-29T14:07:23;30.20;30.00
12060;DHT22;6091;51.432;6.880;2023-05-29T14:09:51;30.10;30.00
12060;DHT22;6091;51.432;6.880;2023-05-29T14:12:18;30.00;30.00
12060;DHT22;6091;51.432;6.880;2023-05-29T14:14:45;29.90;30.00
12060;DHT22;6091;51.432;6.880;2023-05-29T14:17:14;29.90;30.10
12060;DHT22;6091;51.432;6.880;2023-05-29T14:19:41;29.80;30.10
12060;DHT22;6091;51.432;6.880;2023-05-29T14:22:08;29.80;30.10
12060;DHT22;6091;51.432;6.880;2023-05-29T14:24:35;29.70;30.10
12060;DHT22;6091;51.432;6.880;2023-05-29T14:27:03;29.60;30.10
12060;DHT22;6091;51.432;6.880;2023-05-29T14:29:30;29.60;30.20
12060;DHT22;6091;51.432;6.880;2023-05-29T14:31:57;29.50;30.10
12060;DHT22;6091;51.432;6.880;2023-05-29T14:34:25;29.50;30.20
12060;DHT22;6091;51.432;6.880;2023-05-29T14:36:52;29.40;30.20
12060;DHT22;6091;51.432;6.880;2023-05-29T14:39:19;29.40;30.20
12060;DHT22;6091;51.432;6.880;2023-05-29T14:41:46;29.30;30.20
12060;DHT22;6091;51.432;6.880;2023-05-29T14:44:14;29.30;30.20
12060;DHT22;6091;51.432;6.880;2023-05-29T14:46:41;29.30;30.30
12060;DHT22;6091;51.432;6.880;2023-05-29T14:49:08;29.20;30.30
12060;DHT22;6091;51.432;6.880;2023-05-29T14:51:35;29.20;30.30
12060;DHT22;6091;51.432;6.880;2023-05-29T14:54:03;29.10;30.40
12060;DHT22;6091;51.432;6.880;2023-05-29T14:56:30;29.10;30.40
12060;DHT22;6091;51.432;6.880;2023-05-29T14:58:57;29.10;30.40
12060;DHT22;6091;51.432;6.880;2023-05-29T15:01:24;29.00;30.40
12060;DHT22;6091;51.432;6.880;2023-05-29T15:03:51;29.00;30.50
12060;DHT22;6091;51.432;6.880;2023-05-29T15:06:18;29.00;30.50
12060;DHT22;6091;51.432;6.880;2023-05-29T15:08:46;28.90;30.40
12060;DHT22;6091;51.432;6.880;2023-05-29T15:11:14;28.90;30.50
12060;DHT22;6091;51.432;6.880;2023-05-29T15:13:43;28.90;30.50
12060;DHT22;6091;51.432;6.880;2023-05-29T15:16:10;28.90;30.50
12060;DHT22;6091;51.432;6.880;2023-05-29T15:18:37;28.80;30.50
12060;DHT22;6091;51.432;6.880;2023-05-29T15:21:04;28.80;30.50
12060;DHT22;6091;51.432;6.880;2023-05-29T15:23:32;28.80;30.60
12060;DHT22;6091;51.432;6.880;2023-05-29T15:26:01;28.70;30.50
12060;DHT22;6091;51.432;6.880;2023-05-29T15:28:29;28.70;30.50
12060;DHT22;6091;51.432;6.880;2023-05-29T15:30:56;28.70;30.60
12060;DHT22;6091;51.432;6.880;2023-05-29T15:33:24;28.70;30.60
12060;DHT22;6091;51.432;6.880;2023-05-29T15:35:51;28.70;30.70
12060;DHT22;6091;51.432;6.880;2023-05-29T15:38:18;28.70;30.80
12060;DHT22;6091;51.432;6.880;2023-05-29T15:40:46;28.80;30.90
12060;DHT22;6091;51.432;6.880;2023-05-29T15:43:13;28.80;30.90
12060;DHT22;6091;51.432;6.880;2023-05-29T15:45:40;28.90;31.00
12060;DHT22;6091;51.432;6.880;2023-05-29T15:48:09;29.00;31.00
12060;DHT22;6091;51.432;6.880;2023-05-29T15:50:36;29.10;31.00
12060;DHT22;6091;51.432;6.880;2023-05-29T15:53:03;29.10;30.90
12060;DHT22;6091;51.432;6.880;2023-05-29T15:55:30;29.20;30.80
12060;DHT22;6091;51.432;6.880;2023-05-29T15:57:57;29.20;30.80
12060;DHT22;6091;51.432;6.880;2023-05-29T16:00:24;29.30;30.70
12060;DHT22;6091;51.432;6.880;2023-05-29T16:02:51;29.30;30.70
12060;DHT22;6091;51.432;6.880;2023-05-29T16:05:19;29.30;30.60
12060;DHT22;6091;51.432;6.880;2023-05-29T16:07:46;29.30;30.60
12060;DHT22;6091;51.432;6.880;2023-05-29T16:10:15;29.20;30.50
12060;DHT22;6091;51.432;6.880;2023-05-29T16:12:44;29.20;30.50
12060;DHT22;6091;51.432;6.880;2023-05-29T16:15:12;29.20;30.50
12060;DHT22;6091;51.432;6.880;2023-05-29T16:17:40;29.20;30.50
12060;DHT22;6091;51.432;6.880;2023-05-29T16:20:09;29.10;30.50
12060;DHT22;6091;51.432;6.880;2023-05-29T16:22:37;29.10;30.50
12060;DHT22;6091;51.432;6.880;2023-05-29T16:25:09;29.00;30.40
12060;DHT22;6091;51.432;6.880;2023-05-29T16:27:37;29.00;30.50